Flight Track Log - Related Links

Times and Time Zones

All times are in EDT time to prevent confusion due to time zone crossing. See the UAL4274 flight status page for this flight to view local times or setup timezone preferences in your user account.

Time Position Orientation Groundspeed Altitude Reporting Facility
EDT Latitude Longitude Course Direction KTS MPH feet Rate Location/Type
Fri 07:33:00 AM 37.4706 -77.3031 307° West 170 196 1,800  Level Washington Center
Fri 07:34:00 AM 37.4992 -77.3508 307° West 181 208 5,000 2,700 Climbing Washington Center
Fri 07:35:00 AM 37.5656 -77.3761 343° North 205 236 7,200 2,000 Climbing Washington Center
Fri 07:36:00 AM 37.6317 -77.4117 337° Northwest 227 261 9,000 1,400 Climbing Washington Center
Fri 07:37:00 AM 37.6744 -77.4861 306° West 242 278 10,000 1,600 Climbing Washington Center
Fri 07:38:00 AM 37.8089 -77.8147 307° West  Level FlightAware Approximate
Fri 07:38:00 AM 37.7147 -77.5711 301° West 266 306 12,200  Level Washington Center
Fri 07:39:00 AM 37.7592 -77.6564 303° West 283 326 14,400 2,050 Climbing Washington Center
Fri 07:40:00 AM 37.8036 -77.7392 304° West 283 326 16,300 1,750 Climbing Washington Center
Fri 07:41:00 AM 37.8500 -77.8297 303° West 288 331 17,900 1,650 Climbing Washington Center
Fri 07:42:00 AM 37.8983 -77.9258 303° West 309 356 19,600 1,600 Climbing Washington Center
Fri 07:43:00 AM 37.9483 -78.0275 302° West 324 373 21,100 1,500 Climbing Washington Center
Fri 07:44:00 AM 38.0047 -78.1269 306° West 336 387 22,600 1,500 Climbing Washington Center
Fri 07:45:00 AM 38.1103 -78.1622 345° North 349 402 24,100 1,550 Climbing Washington Center
Fri 07:46:00 AM 38.2247 -78.1686 357° North 364 419 25,700 1,450 Climbing Washington Center
Fri 07:47:00 AM 38.3372 -78.1753 357° North 387 445 27,000 650 Climbing Washington Center
Fri 07:48:00 AM 38.4539 -78.1819 357° North 400 460 27,000  Level Washington Center
Fri 07:49:00 AM 38.5767 -78.1917 356° North 421 484 27,000  Level Washington Center
Fri 07:50:00 AM 38.7100 -78.1989 358° North 449 517 27,000  Level Washington Center
Fri 07:51:00 AM 38.8453 -78.2064 358° North 466 536 27,000  Level Washington Center
Fri 07:52:00 AM 38.9847 -78.2219 355° North 491 565 27,000  Level Washington Center
Fri 07:53:00 AM 39.1283 -78.2353 356° North 503 579 27,000 409 Level Washington Center
Fri 07:54:56 AM 39.3869 -78.2625 355° North 528 608 28,200 886 Climbing Cleveland Center
Fri 07:55:56 AM 39.5267 -78.2767 356° North 515 593 29,600 1,350 Climbing Cleveland Center
Fri 07:56:56 AM 39.6583 -78.2911 355° North 491 565 30,900 700 Climbing Cleveland Center
Fri 07:57:56 AM 39.7919 -78.3028 356° North 484 557 31,000 50 Climbing Cleveland Center
Fri 07:58:56 AM 39.9183 -78.3689 338° Northwest 484 557 31,000  Level Cleveland Center
Fri 07:59:56 AM 40.0044 -78.5017 310° West 463 533 31,000  Level Cleveland Center
Fri 08:00:56 AM 40.0858 -78.6347 309° West 462 532 31,000  Level Cleveland Center
Fri 08:01:56 AM 40.1694 -78.7681 309° West 470 541 31,000  Level Cleveland Center
Fri 08:02:56 AM 40.2508 -78.9019 309° West 470 541 31,000 -450 Level Cleveland Center
Fri 08:03:56 AM 40.3381 -79.0358 311° West 480 552 30,100 -500 Descending Cleveland Center
Fri 08:04:56 AM 40.4233 -79.1758 309° West 486 559 30,000 -50 Descending Cleveland Center
Fri 08:05:56 AM 40.5167 -79.3239 310° West 486 559 30,000  Level Cleveland Center
Fri 08:06:56 AM 40.5953 -79.4483 310° West 486 559 30,000  Level Cleveland Center
Fri 08:07:56 AM 40.6778 -79.5867 308° West 486 559 30,000  Level Cleveland Center
Fri 08:08:56 AM 40.7644 -79.7222 310° West 486 559 30,000 -300 Level Cleveland Center
Fri 08:09:56 AM 40.8425 -79.8586 307° West 481 554 29,400 -800 Descending Cleveland Center
Fri 08:10:56 AM 40.9225 -79.9869 310° West 470 541 28,400 -1,000 Descending Cleveland Center
Fri 08:11:56 AM 40.9981 -80.1128 309° West 456 525 27,400 -950 Descending Cleveland Center
Fri 08:12:56 AM 41.0694 -80.2333 308° West 435 501 26,500 -950 Descending Cleveland Center
Fri 08:13:56 AM 41.1447 -80.3625 308° West 435 501 25,500 -1,000 Descending Cleveland Center
Fri 08:14:56 AM 41.2219 -80.4919 308° West 446 513 24,500 -950 Descending Cleveland Center
Fri 08:15:56 AM 41.2992 -80.6219 308° West 451 519 23,600 -1,000 Descending Cleveland Center
Fri 08:16:56 AM 41.3636 -80.7631 301° West 443 510 22,500 -1,610 Descending Cleveland Center
Fri 08:17:18 AM 41.3864 -80.8267 296° West 429 494 21,400 -2,700 Descending Cleveland Center
Fri 08:17:56 AM 41.4156 -80.8989 298° West 430 495 19,800 -3,000 Descending Cleveland Center
Fri 08:18:56 AM 41.4650 -81.0292 297° West 399 459 16,500 -3,150 Descending Cleveland Center
Fri 08:19:56 AM 41.5061 -81.1569 293° West 383 441 13,500 -3,000 Descending Cleveland Center
Fri 08:20:56 AM 41.5242 -81.2792 281° West 349 402 10,500 -1,850 Descending Cleveland Center
Fri 08:21:56 AM 41.5422 -81.3906 282° West 319 367 9,800 -1,200 Descending Cleveland Center
Fri 08:22:56 AM 41.5519 -81.4850 278° West 277 319 8,100 -1,750 Descending Cleveland Center
Fri 08:23:56 AM 41.5511 -81.5819 269° West 257 296 6,300 -1,800 Descending Cleveland Center
Fri 08:24:56 AM 41.5317 -81.6650 253° West 238 274 4,500 -1,760 Descending Cleveland Center
Fri 08:25:11 AM 41.5253 -81.6786 238° Southwest 216 249 4,100 -1,200 Descending Cleveland Center
Fri 08:25:56 AM 41.4936 -81.7253 228° Southwest 224 258 3,300 -1,082 Descending Cleveland Center
Fri 08:26:12 AM 41.4872 -81.7361 232° Southwest 201 231 3,000 -1,000 Descending Cleveland Center
Fri 08:26:56 AM 41.4619 -81.7717 227° Southwest 200 230 2,300 -900 Descending Cleveland Center
Fri 08:27:12 AM 41.4575 -81.7828 242° Southwest 137 158 2,100 -701 Descending Cleveland Center
Fri 08:28:13 AM 41.4342 -81.8156 226° Southwest 121 139 1,400 -689 Descending Cleveland Center
Fri 08:30:00 AM 41.4000 -81.8500 252° West  Level FlightAware Approximate
Fri 08:37:00 AM 41.4094 -81.8547 252° West  Level Estimated

Login

Don't have an account? Register now (free) for customized features, flight alerts, and more!